createdAt,value
2022-09-11T00:00:03.593Z,96.38
2022-09-11T00:00:57.698Z,95.99
2022-09-11T00:01:58.477Z,96.65
2022-09-11T00:02:58.213Z,96.82
2022-09-11T00:03:59.477Z,96.49
2022-09-11T00:04:57.187Z,96.32
2022-09-11T00:06:06.946Z,96.54
2022-09-11T00:06:57.736Z,96.38
2022-09-11T00:07:58.470Z,96.65
2022-09-11T00:08:57.801Z,96.38
2022-09-11T00:09:57.257Z,96.43
2022-09-11T00:10:57.125Z,96.54
2022-09-11T00:11:58.105Z,96.54
2022-09-11T00:12:58.141Z,96.65
2022-09-11T00:13:57.127Z,96.76
2022-09-11T00:14:57.375Z,96.49
2022-09-11T00:15:57.302Z,97.10
2022-09-11T00:16:57.403Z,96.54
2022-09-11T00:18:03.498Z,97.10
2022-09-11T00:18:57.141Z,97.21
2022-09-11T00:19:57.468Z,97.78
2022-09-11T00:20:57.357Z,97.38
2022-09-11T00:21:57.127Z,97.50
2022-09-11T00:23:03.949Z,97.21
2022-09-11T00:23:57.621Z,96.99
2022-09-11T00:24:58.132Z,97.10
2022-09-11T00:25:58.078Z,97.10
2022-09-11T00:26:57.133Z,97.04
2022-09-11T00:28:03.509Z,96.76
2022-09-11T00:28:57.420Z,97.10
2022-09-11T00:29:56.986Z,97.33
2022-09-11T00:30:57.304Z,97.04
2022-09-11T00:31:57.227Z,97.50
2022-09-11T00:32:56.931Z,97.55
2022-09-11T00:34:03.710Z,97.61
2022-09-11T00:34:57.947Z,97.44
2022-09-11T00:35:57.078Z,97.50
2022-09-11T00:36:56.939Z,97.16
2022-09-11T00:37:56.786Z,97.67
2022-09-11T00:38:56.827Z,97.78
2022-09-11T00:39:57.942Z,98.07
2022-09-11T00:40:56.832Z,98.18
2022-09-11T00:41:56.797Z,98.24
2022-09-11T00:42:57.017Z,98.18
2022-09-11T00:43:57.159Z,98.24
2022-09-11T00:44:58.029Z,97.61
2022-09-11T00:45:57.702Z,98.01
2022-09-11T00:46:56.916Z,97.95
2022-09-11T00:47:56.894Z,97.95
2022-09-11T00:48:56.930Z,98.01
2022-09-11T00:50:03.003Z,98.01
2022-09-11T00:50:56.628Z,98.41
2022-09-11T00:51:57.026Z,97.78
2022-09-11T00:52:56.627Z,98.24
2022-09-11T00:53:56.574Z,98.18
2022-09-11T00:55:03.339Z,98.01
2022-09-11T00:55:56.631Z,97.67
2022-09-11T00:56:56.542Z,98.24
2022-09-11T00:57:57.558Z,98.41
2022-09-11T00:58:56.515Z,98.47
2022-09-11T00:59:56.619Z,98.30
2022-09-11T01:01:02.806Z,98.01
2022-09-11T01:01:56.546Z,98.41
2022-09-11T01:02:56.500Z,98.30
2022-09-11T01:03:56.482Z,98.12
2022-09-11T01:04:56.426Z,98.36
2022-09-11T01:05:56.493Z,98.36
2022-09-11T01:06:57.434Z,98.59
2022-09-11T01:07:56.571Z,98.18
2022-09-11T01:08:56.347Z,98.36
2022-09-11T01:09:56.465Z,98.53
2022-09-11T01:10:56.361Z,98.12
2022-09-11T01:12:04.054Z,98.47
2022-09-11T01:12:56.388Z,98.59
2022-09-11T01:13:57.316Z,98.88
2022-09-11T01:14:56.432Z,98.59
2022-09-11T01:15:56.345Z,98.12
2022-09-11T01:17:02.577Z,98.70
2022-09-11T01:17:56.324Z,98.18
2022-09-11T01:18:56.250Z,98.47
2022-09-11T01:19:56.349Z,98.36
2022-09-11T01:20:56.550Z,99.00
2022-09-11T01:22:02.532Z,98.70
2022-09-11T01:22:56.138Z,98.70
2022-09-11T01:23:56.175Z,98.53
2022-09-11T01:24:56.258Z,98.18
2022-09-11T01:25:57.250Z,98.70
2022-09-11T01:26:58.165Z,98.94
2022-09-11T01:28:02.589Z,98.82
2022-09-11T01:29:00.034Z,98.88
2022-09-11T01:29:56.352Z,98.36
2022-09-11T01:30:56.063Z,98.59
2022-09-11T01:31:56.073Z,98.70
2022-09-11T01:33:02.887Z,98.88
2022-09-11T01:33:56.039Z,99.05
2022-09-11T01:34:56.087Z,97.95
2022-09-11T01:35:56.042Z,98.88
2022-09-11T01:36:55.950Z,98.94
2022-09-11T01:37:56.013Z,98.64
2022-09-11T01:39:02.681Z,98.88
2022-09-11T01:39:56.053Z,99.05
2022-09-11T01:40:55.921Z,98.94
2022-09-11T01:41:55.922Z,98.94
2022-09-11T01:42:55.934Z,98.70
2022-09-11T01:43:55.892Z,99.17
2022-09-11T01:45:02.541Z,99.05
2022-09-11T01:46:02.338Z,98.94
2022-09-11T01:46:56.142Z,99.58
2022-09-11T01:47:55.906Z,98.64
2022-09-11T01:48:55.838Z,99.11
2022-09-11T01:49:55.837Z,98.76
2022-09-11T01:51:02.563Z,99.35
2022-09-11T01:51:55.839Z,99.41
2022-09-11T01:52:55.937Z,99.29
2022-09-11T01:53:55.774Z,99.29
2022-09-11T01:54:56.043Z,98.47
2022-09-11T01:55:56.097Z,99.00
2022-09-11T01:56:56.748Z,99.05
2022-09-11T01:57:55.778Z,99.35
2022-09-11T01:58:55.671Z,99.11
2022-09-11T01:59:55.676Z,99.00
2022-09-11T02:00:55.739Z,99.17
2022-09-11T02:01:55.707Z,99.64
2022-09-11T02:03:01.956Z,98.88
2022-09-11T02:03:55.886Z,99.76
2022-09-11T02:04:55.618Z,99.11
2022-09-11T02:05:55.599Z,99.82
2022-09-11T02:06:56.037Z,99.41
2022-09-11T02:08:02.004Z,100.00
2022-09-11T02:08:55.634Z,99.17
2022-09-11T02:09:55.577Z,99.88
2022-09-11T02:10:55.513Z,99.64
2022-09-11T02:11:55.526Z,99.46
2022-09-11T02:13:01.872Z,99.70
2022-09-11T02:14:01.804Z,99.58
2022-09-11T02:14:55.600Z,99.88
2022-09-11T02:15:55.659Z,99.70
2022-09-11T02:16:55.463Z,99.76
2022-09-11T02:17:55.541Z,99.70
2022-09-11T02:18:55.445Z,100.18
2022-09-11T02:20:01.730Z,100.06
2022-09-11T02:20:55.524Z,100.18
2022-09-11T02:21:55.535Z,100.12
2022-09-11T02:22:55.565Z,100.12
2022-09-11T02:23:55.521Z,100.36
2022-09-11T02:25:01.780Z,100.24
2022-09-11T02:25:55.356Z,100.18
2022-09-11T02:26:55.801Z,99.70
2022-09-11T02:27:55.584Z,100.36
2022-09-11T02:29:01.069Z,100.48
2022-09-11T02:30:01.690Z,100.36
2022-09-11T02:30:56.151Z,100.36
2022-09-11T02:31:55.458Z,99.94
2022-09-11T02:33:11.032Z,100.48
2022-09-11T02:33:55.270Z,100.96
2022-09-11T02:34:55.344Z,100.48
2022-09-11T02:36:02.772Z,100.72
2022-09-11T02:36:57.413Z,100.90
2022-09-11T02:37:55.266Z,100.72
2022-09-11T02:38:55.256Z,100.90
2022-09-11T02:39:55.224Z,100.60
2022-09-11T02:41:01.691Z,100.72
2022-09-11T02:42:01.464Z,100.90
2022-09-11T02:42:55.177Z,100.84
2022-09-11T02:43:55.089Z,101.21
2022-09-11T02:44:59.490Z,100.96
2022-09-11T02:45:55.443Z,101.82
2022-09-11T02:46:55.261Z,100.60
2022-09-11T02:48:02.035Z,101.03
2022-09-11T02:48:55.695Z,101.51
2022-09-11T02:50:21.227Z,100.72
2022-09-11T02:50:55.073Z,101.39
2022-09-11T02:51:55.636Z,100.90
2022-09-11T02:52:56.807Z,101.03
2022-09-11T02:54:01.297Z,101.15
2022-09-11T02:54:56.028Z,101.45
2022-09-11T02:55:56.776Z,101.33
2022-09-11T02:56:55.091Z,101.09
2022-09-11T02:57:56.016Z,101.21
2022-09-11T02:58:55.012Z,101.09
2022-09-11T03:00:01.454Z,101.27
2022-09-11T03:00:55.641Z,101.76
2022-09-11T03:01:54.942Z,101.70
2022-09-11T03:02:54.911Z,102.26
2022-09-11T03:03:59.897Z,101.21
2022-09-11T03:05:02.446Z,101.70
2022-09-11T03:05:54.972Z,101.82
2022-09-11T03:06:54.872Z,101.58
2022-09-11T03:08:02.770Z,101.51
2022-09-11T03:08:54.839Z,101.39
2022-09-11T03:10:02.112Z,101.51
2022-09-11T03:10:54.801Z,102.07
2022-09-11T03:11:56.060Z,101.89
2022-09-11T03:12:54.915Z,101.70
2022-09-11T03:13:54.846Z,101.64
2022-09-11T03:15:01.047Z,101.58
2022-09-11T03:15:54.961Z,102.01
2022-09-11T03:16:54.854Z,101.82
2022-09-11T03:17:54.929Z,102.07
2022-09-11T03:18:57.600Z,102.07
2022-09-11T03:20:01.177Z,101.89
2022-09-11T03:20:56.558Z,102.01
2022-09-11T03:21:54.932Z,102.38
2022-09-11T03:22:54.624Z,102.07
2022-09-11T03:23:55.022Z,101.82
2022-09-11T03:24:55.148Z,102.57
2022-09-11T03:26:01.207Z,101.95
2022-09-11T03:26:54.627Z,101.95
2022-09-11T03:27:56.056Z,102.26
2022-09-11T03:28:55.791Z,101.76
2022-09-11T03:29:54.572Z,102.26
2022-09-11T03:30:54.589Z,101.95
2022-09-11T03:32:01.682Z,101.95
2022-09-11T03:32:56.327Z,102.07
2022-09-11T03:33:54.529Z,102.13
2022-09-11T03:34:54.526Z,102.20
2022-09-11T03:35:57.249Z,102.32
2022-09-11T03:37:08.140Z,102.45
2022-09-11T03:37:56.321Z,102.38
2022-09-11T03:38:54.435Z,101.95
2022-09-11T03:39:54.862Z,102.26
2022-09-11T03:40:55.945Z,102.01
2022-09-11T03:42:01.059Z,102.07
2022-09-11T03:42:54.521Z,101.95
2022-09-11T03:43:58.685Z,102.57
2022-09-11T03:44:54.434Z,102.57
2022-09-11T03:45:54.363Z,102.38
2022-09-11T03:47:01.296Z,102.82
2022-09-11T03:47:54.344Z,102.70
2022-09-11T03:48:57.045Z,102.57
2022-09-11T03:49:54.238Z,102.95
2022-09-11T03:50:55.278Z,103.27
2022-09-11T03:51:54.291Z,102.51
2022-09-11T03:53:01.004Z,102.89
2022-09-11T03:53:54.357Z,103.01
2022-09-11T03:54:55.027Z,102.95
2022-09-11T03:55:54.351Z,103.39
2022-09-11T03:56:55.482Z,103.14
2022-09-11T03:58:00.473Z,103.46
2022-09-11T03:58:55.295Z,103.08
2022-09-11T03:59:54.505Z,103.46
2022-09-11T04:00:55.807Z,103.39
2022-09-11T04:01:54.208Z,103.46
2022-09-11T04:03:01.082Z,103.20
2022-09-11T04:03:54.182Z,103.33
2022-09-11T04:04:57.567Z,103.08
2022-09-11T04:05:54.138Z,103.14
2022-09-11T04:06:54.092Z,103.46
2022-09-11T04:08:03.640Z,103.52
2022-09-11T04:08:54.270Z,103.39
2022-09-11T04:09:54.605Z,103.65
2022-09-11T04:10:54.117Z,104.23
2022-09-11T04:11:55.053Z,103.84
2022-09-11T04:13:02.839Z,103.84
2022-09-11T04:13:54.022Z,103.84
2022-09-11T04:14:55.101Z,103.97
2022-09-11T04:15:54.364Z,104.23
2022-09-11T04:16:54.886Z,104.49
2022-09-11T04:18:05.281Z,103.71
2022-09-11T04:18:56.370Z,104.23
2022-09-11T04:19:57.251Z,104.36
2022-09-11T04:20:53.936Z,104.36
2022-09-11T04:21:53.914Z,104.10
2022-09-11T04:22:54.694Z,104.17
2022-09-11T04:24:01.838Z,104.36
2022-09-11T04:24:54.148Z,103.91
2022-09-11T04:25:59.429Z,104.17
2022-09-11T04:26:58.606Z,104.62
2022-09-11T04:27:56.284Z,104.62
2022-09-11T04:29:07.652Z,104.30
2022-09-11T04:29:54.024Z,104.62
2022-09-11T04:30:54.443Z,104.43
2022-09-11T04:31:54.002Z,104.88
2022-09-11T04:32:53.953Z,104.62
2022-09-11T04:33:57.057Z,104.75
2022-09-11T04:35:00.175Z,105.21
2022-09-11T04:35:53.785Z,105.15
2022-09-11T04:36:53.901Z,105.01
2022-09-11T04:37:54.064Z,105.15
2022-09-11T04:38:53.746Z,105.28
2022-09-11T04:40:03.864Z,104.69
2022-09-11T04:40:54.373Z,105.61
2022-09-11T04:41:53.748Z,104.62
2022-09-11T04:42:54.093Z,104.62
2022-09-11T04:43:53.712Z,104.75
2022-09-11T04:45:00.139Z,105.28
2022-09-11T04:45:53.566Z,105.41
2022-09-11T04:46:55.735Z,105.28
2022-09-11T04:47:53.627Z,104.75
2022-09-11T04:48:56.597Z,104.56
2022-09-11T04:49:54.626Z,105.21
2022-09-11T04:50:56.595Z,104.62
2022-09-11T04:51:54.033Z,104.36
2022-09-11T04:52:53.835Z,105.01
2022-09-11T04:53:54.753Z,104.88
2022-09-11T04:54:53.662Z,104.36
2022-09-11T04:55:54.467Z,104.49
2022-09-11T04:56:53.452Z,104.62
2022-09-11T04:57:53.494Z,104.36
2022-09-11T04:58:55.083Z,103.91
2022-09-11T04:59:53.479Z,104.30
2022-09-11T05:00:56.603Z,104.36
2022-09-11T05:02:41.717Z,173.93
2022-09-11T05:03:42.897Z,139.24
2022-09-11T05:04:41.837Z,125.75
2022-09-11T05:05:41.714Z,117.87
2022-09-11T05:06:41.984Z,113.10
2022-09-11T05:07:48.607Z,111.00
2022-09-11T05:08:41.691Z,108.48
2022-09-11T05:09:41.717Z,107.37
2022-09-11T05:10:41.739Z,106.42
2022-09-11T05:11:42.759Z,105.48
2022-09-11T05:12:43.834Z,105.21
2022-09-11T05:13:48.108Z,104.62
2022-09-11T05:14:41.599Z,104.56
2022-09-11T05:15:43.283Z,104.62
2022-09-11T05:16:41.878Z,104.17
2022-09-11T05:17:41.889Z,104.49
2022-09-11T05:18:41.776Z,103.71
2022-09-11T05:19:49.255Z,103.46
2022-09-11T05:20:43.850Z,103.46
2022-09-11T05:21:41.928Z,103.39
2022-09-11T05:22:41.726Z,103.46
2022-09-11T05:23:41.537Z,104.10
2022-09-11T05:24:42.437Z,102.95
2022-09-11T05:25:48.700Z,103.65
2022-09-11T05:26:41.474Z,103.01
2022-09-11T05:27:41.552Z,103.08
2022-09-11T05:28:41.643Z,102.70
2022-09-11T05:29:43.140Z,103.33
2022-09-11T05:30:42.445Z,103.33
2022-09-11T05:31:42.517Z,103.01
2022-09-11T05:32:41.856Z,103.20
2022-09-11T05:33:41.530Z,103.01
2022-09-11T05:34:42.485Z,102.26
2022-09-11T05:35:41.397Z,102.82
2022-09-11T05:36:43.436Z,102.45
2022-09-11T05:37:41.525Z,102.57
2022-09-11T05:38:42.385Z,102.07
2022-09-11T05:39:42.076Z,102.13
2022-09-11T05:40:48.611Z,101.70
2022-09-11T05:41:42.709Z,102.70
2022-09-11T05:42:41.721Z,102.07
2022-09-11T05:43:41.265Z,102.32
2022-09-11T05:44:41.958Z,101.95
2022-09-11T05:45:43.293Z,102.07
2022-09-11T05:46:41.220Z,101.70
2022-09-11T05:47:51.378Z,101.89
2022-09-11T05:48:43.363Z,101.27
2022-09-11T05:49:41.343Z,101.89
2022-09-11T05:50:42.188Z,101.76
2022-09-11T05:51:41.175Z,101.21
2022-09-11T05:52:43.222Z,101.03
2022-09-11T05:53:43.067Z,101.39
2022-09-11T05:54:41.819Z,101.21
2022-09-11T05:55:41.211Z,100.96
2022-09-11T05:56:41.295Z,101.58
2022-09-11T05:57:41.170Z,101.03
2022-09-11T05:58:42.080Z,100.72
2022-09-11T05:59:42.234Z,100.54
2022-09-11T06:00:46.048Z,100.48
2022-09-11T06:01:41.222Z,100.42
2022-09-11T06:02:41.926Z,100.84
2022-09-11T06:03:42.158Z,100.54
2022-09-11T06:04:42.568Z,100.00
2022-09-11T06:05:42.086Z,99.88
2022-09-11T06:06:40.866Z,100.00
2022-09-11T06:07:41.457Z,100.24
2022-09-11T06:08:41.059Z,99.76
2022-09-11T06:09:41.929Z,100.30
2022-09-11T06:10:49.522Z,99.58
2022-09-11T06:11:43.074Z,100.12
2022-09-11T06:12:41.545Z,100.42
2022-09-11T06:13:40.933Z,99.52
2022-09-11T06:14:40.768Z,100.00
2022-09-11T06:15:46.663Z,100.06
2022-09-11T06:16:44.751Z,99.00
2022-09-11T06:17:41.920Z,99.05
2022-09-11T06:18:41.067Z,99.52
2022-09-11T06:19:41.324Z,99.46
2022-09-11T06:20:41.258Z,99.23
2022-09-11T06:22:27.691Z,166.01
2022-09-11T06:23:28.173Z,133.79
2022-09-11T06:24:27.589Z,119.90
2022-09-11T06:25:33.958Z,111.74
2022-09-11T06:26:28.521Z,106.62
2022-09-11T06:27:35.085Z,104.88
2022-09-11T06:28:28.388Z,102.82
2022-09-11T06:29:27.650Z,102.57
2022-09-11T06:30:27.709Z,99.76
2022-09-11T06:31:27.638Z,100.72
2022-09-11T06:32:29.576Z,98.64
2022-09-11T06:33:34.460Z,97.89
2022-09-11T06:34:28.500Z,99.05
2022-09-11T06:35:28.121Z,98.94
2022-09-11T06:36:28.888Z,97.44
2022-09-11T06:37:28.761Z,97.50
2022-09-11T06:38:27.503Z,96.71
2022-09-11T06:39:34.044Z,98.24
2022-09-11T06:40:28.032Z,96.71
2022-09-11T06:41:27.330Z,97.89
2022-09-11T06:42:27.525Z,97.21
2022-09-11T06:43:27.541Z,97.78
2022-09-11T06:44:27.446Z,97.10
2022-09-11T06:45:34.326Z,97.95
2022-09-11T06:46:28.331Z,97.21
2022-09-11T06:47:28.226Z,95.93
2022-09-11T06:48:27.884Z,97.84
2022-09-11T06:49:29.962Z,96.32
2022-09-11T06:50:28.245Z,95.93
2022-09-11T06:51:33.707Z,96.99
2022-09-11T06:52:27.243Z,97.38
2022-09-11T06:53:28.160Z,96.99
2022-09-11T06:54:27.203Z,96.82
2022-09-11T06:55:31.704Z,95.88
2022-09-11T06:56:27.247Z,97.10
2022-09-11T06:57:42.055Z,97.10
2022-09-11T06:58:34.800Z,95.55
2022-09-11T06:59:28.168Z,95.44
2022-09-11T07:00:27.691Z,95.33
2022-09-11T07:01:28.063Z,96.43
2022-09-11T07:02:34.306Z,96.04
2022-09-11T07:03:28.716Z,96.88
2022-09-11T07:04:27.053Z,95.77
2022-09-11T07:05:27.232Z,96.38
2022-09-11T07:06:27.216Z,95.93
2022-09-11T07:07:27.379Z,95.88
2022-09-11T07:08:33.489Z,96.38
2022-09-11T07:09:27.030Z,95.77
2022-09-11T07:10:27.193Z,95.66
2022-09-11T07:11:29.344Z,94.47
2022-09-11T07:12:27.099Z,96.43
2022-09-11T07:13:37.340Z,95.50
2022-09-11T07:14:31.527Z,96.21
2022-09-11T07:15:27.617Z,95.99
2022-09-11T07:16:28.267Z,96.26
2022-09-11T07:17:27.094Z,96.15
2022-09-11T07:18:27.071Z,95.99
2022-09-11T07:19:33.853Z,96.04
2022-09-11T07:20:27.461Z,95.93
2022-09-11T07:21:28.142Z,95.66
2022-09-11T07:22:27.404Z,95.44
2022-09-11T07:23:27.956Z,94.58
2022-09-11T07:24:33.660Z,94.53
2022-09-11T07:25:27.857Z,95.77
2022-09-11T07:26:27.956Z,95.82
2022-09-11T07:27:27.977Z,95.22
2022-09-11T07:28:28.226Z,95.77
2022-09-11T07:29:27.165Z,95.44
2022-09-11T07:30:33.891Z,95.22
2022-09-11T07:31:28.053Z,95.06
2022-09-11T07:32:27.303Z,94.85
2022-09-11T07:33:28.191Z,94.53
2022-09-11T07:34:28.480Z,94.69
2022-09-11T07:35:48.690Z,94.37
2022-09-11T07:36:27.637Z,94.37
2022-09-11T07:37:26.892Z,93.94
2022-09-11T07:38:27.166Z,95.68
2022-09-11T07:39:27.804Z,94.15
2022-09-11T07:40:37.893Z,94.00
2022-09-11T07:41:30.508Z,95.14
2022-09-11T07:42:26.994Z,95.36
2022-09-11T07:43:26.956Z,94.82
2022-09-11T07:44:27.820Z,94.60
2022-09-11T07:45:26.669Z,94.92
2022-09-11T07:46:33.275Z,94.92
2022-09-11T07:47:27.846Z,95.03
2022-09-11T07:48:27.791Z,95.03
2022-09-11T07:49:26.590Z,94.39
2022-09-11T07:50:26.809Z,95.03
2022-09-11T07:51:27.603Z,94.28
2022-09-11T07:52:33.002Z,94.28
2022-09-11T07:53:27.767Z,94.07
2022-09-11T07:54:26.738Z,94.71
2022-09-11T07:55:30.333Z,93.75
2022-09-11T07:56:34.114Z,94.50
2022-09-11T07:57:33.203Z,93.96
2022-09-11T07:58:26.697Z,94.28
2022-09-11T07:59:26.472Z,93.86
2022-09-11T08:00:26.413Z,93.44
2022-09-11T08:01:37.696Z,93.55
2022-09-11T08:02:35.278Z,93.65
2022-09-11T08:03:26.402Z,92.72
2022-09-11T08:04:28.387Z,92.92
2022-09-11T08:05:26.689Z,93.03
2022-09-11T08:06:26.935Z,92.51
2022-09-11T08:07:27.710Z,92.00
2022-09-11T08:08:33.326Z,92.21
2022-09-11T08:09:27.291Z,92.31
2022-09-11T08:10:28.282Z,91.80
2022-09-11T08:11:27.291Z,91.80
2022-09-11T08:12:26.674Z,91.20
2022-09-11T08:13:30.027Z,91.00
2022-09-11T08:14:26.421Z,90.81
2022-09-11T08:15:27.647Z,90.22
2022-09-11T08:16:27.537Z,90.22
2022-09-11T08:17:27.363Z,90.12
2022-09-11T08:18:26.761Z,90.12
2022-09-11T08:19:33.912Z,89.93
2022-09-11T08:20:27.215Z,89.45
2022-09-11T08:21:27.889Z,89.64
2022-09-11T08:22:27.527Z,89.26
2022-09-11T08:23:28.519Z,89.64
2022-09-11T08:24:26.646Z,89.26
2022-09-11T08:25:27.332Z,89.26
2022-09-11T08:26:49.147Z,88.69
2022-09-11T08:27:26.381Z,89.07
2022-09-11T08:28:26.494Z,88.22
2022-09-11T08:29:33.575Z,88.60
2022-09-11T08:30:32.452Z,88.41
2022-09-11T08:31:31.491Z,88.22
2022-09-11T08:32:26.063Z,88.32
2022-09-11T08:33:26.222Z,88.32
2022-09-11T08:34:27.153Z,88.41
2022-09-11T08:35:33.459Z,88.32
2022-09-11T08:36:26.419Z,88.69
2022-09-11T08:37:25.867Z,88.69
2022-09-11T08:38:26.003Z,88.22
2022-09-11T08:39:26.713Z,88.60
2022-09-11T08:40:32.321Z,88.22
2022-09-11T08:41:35.470Z,88.22
2022-09-11T08:42:29.369Z,88.04
2022-09-11T08:43:28.456Z,88.32
2022-09-11T08:44:26.128Z,88.50
2022-09-11T08:45:36.459Z,87.95
2022-09-11T08:46:26.045Z,87.95
2022-09-11T08:47:26.139Z,87.58
2022-09-11T08:48:26.093Z,87.95
2022-09-11T08:49:26.803Z,87.49
2022-09-11T08:50:27.171Z,87.67
2022-09-11T08:51:33.827Z,87.58
2022-09-11T08:52:26.945Z,87.58
2022-09-11T08:53:27.009Z,87.67
2022-09-11T08:54:26.155Z,87.49
2022-09-11T08:55:25.653Z,87.58
2022-09-11T08:56:25.703Z,87.21
2022-09-11T08:57:33.703Z,87.21
2022-09-11T08:58:25.832Z,87.31
2022-09-11T08:59:32.978Z,87.49
2022-09-11T09:00:26.097Z,86.85
2022-09-11T09:01:26.652Z,86.85
2022-09-11T09:02:26.351Z,87.03
2022-09-11T09:03:32.562Z,87.03
2022-09-11T09:04:27.335Z,87.03
2022-09-11T09:05:26.777Z,86.76
2022-09-11T09:06:25.462Z,86.67
2022-09-11T09:07:26.513Z,86.85
2022-09-11T09:08:25.881Z,86.67
2022-09-11T09:09:35.066Z,86.32
2022-09-11T09:10:26.844Z,86.49
2022-09-11T09:11:26.385Z,86.49
2022-09-11T09:12:25.723Z,86.85
2022-09-11T09:13:25.811Z,86.76
2022-09-11T09:14:32.876Z,86.40
2022-09-11T09:15:29.255Z,86.58
2022-09-11T09:16:25.493Z,86.58
2022-09-11T09:17:25.609Z,86.67
2022-09-11T09:18:27.101Z,86.58
2022-09-11T09:19:32.796Z,86.49
2022-09-11T09:20:25.287Z,86.40
2022-09-11T09:21:25.762Z,86.40
2022-09-11T09:22:25.404Z,86.32
2022-09-11T09:23:26.745Z,86.05
2022-09-11T09:24:25.629Z,86.05
2022-09-11T09:25:31.851Z,85.87
2022-09-11T09:26:25.277Z,85.61
2022-09-11T09:27:25.803Z,86.14
2022-09-11T09:28:25.744Z,85.61
2022-09-11T09:29:25.953Z,85.87
2022-09-11T09:30:25.254Z,85.52
2022-09-11T09:31:32.655Z,85.87
2022-09-11T09:32:25.275Z,85.26
2022-09-11T09:33:25.418Z,85.43
2022-09-11T09:34:25.909Z,85.00
2022-09-11T09:35:26.328Z,84.92
2022-09-11T09:36:25.120Z,85.09
2022-09-11T09:37:33.073Z,84.32
2022-09-11T09:38:27.135Z,84.32
2022-09-11T09:39:25.274Z,84.49
2022-09-11T09:40:25.717Z,84.23
2022-09-11T09:41:25.205Z,84.32
2022-09-11T09:42:25.810Z,84.06
2022-09-11T09:43:41.078Z,84.06
2022-09-11T09:44:26.480Z,84.74
2022-09-11T09:45:26.340Z,84.66
2022-09-11T09:46:25.768Z,84.49
2022-09-11T09:47:25.994Z,84.74
2022-09-11T09:48:25.852Z,84.92
2022-09-11T09:49:31.754Z,85.35
2022-09-11T09:50:25.039Z,85.43
2022-09-11T09:51:25.245Z,85.70
2022-09-11T09:52:26.422Z,85.09
2022-09-11T09:53:25.087Z,85.70
2022-09-11T09:54:31.528Z,85.61
2022-09-11T09:55:25.173Z,86.14
2022-09-11T09:56:37.474Z,86.05
2022-09-11T09:57:25.539Z,86.14
2022-09-11T09:58:25.042Z,85.96
2022-09-11T09:59:32.755Z,86.14
2022-09-11T10:00:25.121Z,86.85
2022-09-11T10:01:25.944Z,86.49
2022-09-11T10:02:27.549Z,86.05
2022-09-11T10:03:26.417Z,86.14
2022-09-11T10:04:25.160Z,85.96
2022-09-11T10:05:32.125Z,85.61
2022-09-11T10:06:25.305Z,85.35
2022-09-11T10:07:26.306Z,85.09
2022-09-11T10:08:26.154Z,84.83
2022-09-11T10:09:25.920Z,84.40
2022-09-11T10:10:24.977Z,84.40
2022-09-11T10:11:31.200Z,84.32
2022-09-11T10:12:25.674Z,84.23
2022-09-11T10:13:25.122Z,84.32
2022-09-11T10:14:49.993Z,84.40
2022-09-11T10:15:25.894Z,84.06
2022-09-11T10:16:31.354Z,84.57
2022-09-11T10:17:25.490Z,84.49
2022-09-11T10:18:25.698Z,84.66
2022-09-11T10:19:25.547Z,84.92
2022-09-11T10:20:25.905Z,84.92
2022-09-11T10:21:24.754Z,85.35
2022-09-11T10:22:31.250Z,85.17
2022-09-11T10:23:25.215Z,85.00
2022-09-11T10:24:24.654Z,84.74
2022-09-11T10:25:25.183Z,85.09
2022-09-11T10:26:25.663Z,85.26
2022-09-11T10:27:32.183Z,85.35
2022-09-11T10:28:25.716Z,85.09
2022-09-11T10:29:25.699Z,85.00
2022-09-11T10:30:25.117Z,85.52
2022-09-11T10:31:25.806Z,85.35
2022-09-11T10:32:32.177Z,85.35
2022-09-11T10:33:24.523Z,85.17
2022-09-11T10:34:24.880Z,85.09
2022-09-11T10:35:24.889Z,85.00
2022-09-11T10:36:24.749Z,84.74
2022-09-11T10:37:34.866Z,84.66
2022-09-11T10:38:25.488Z,84.74
2022-09-11T10:39:24.756Z,84.57
2022-09-11T10:40:24.629Z,83.98
2022-09-11T10:41:26.525Z,84.06
2022-09-11T10:42:33.182Z,83.56
2022-09-11T10:43:25.615Z,83.39
2022-09-11T10:44:25.932Z,82.98
2022-09-11T10:45:24.300Z,82.65
2022-09-11T10:46:31.456Z,82.33
2022-09-11T10:47:24.214Z,82.08
2022-09-11T10:48:31.291Z,82.25
2022-09-11T10:49:24.673Z,82.00
2022-09-11T10:50:30.787Z,81.84
2022-09-11T10:51:24.375Z,82.08
2022-09-11T10:52:24.121Z,81.61
2022-09-11T10:53:24.144Z,81.29
2022-09-11T10:54:30.886Z,81.37
2022-09-11T10:55:24.106Z,80.66
2022-09-11T10:56:24.125Z,81.05
2022-09-11T10:57:24.042Z,81.13
2022-09-11T10:58:24.062Z,80.82
2022-09-11T10:59:30.960Z,80.51
2022-09-11T11:00:28.334Z,80.35
2022-09-11T11:01:24.410Z,80.58
2022-09-11T11:02:24.165Z,80.97
2022-09-11T11:03:23.988Z,81.05
2022-09-11T11:04:25.438Z,81.29
2022-09-11T11:05:32.523Z,81.45
2022-09-11T11:06:23.958Z,81.76
2022-09-11T11:07:23.929Z,81.84
2022-09-11T11:08:23.912Z,82.08
2022-09-11T11:09:27.702Z,81.92
2022-09-11T11:10:25.723Z,82.73
2022-09-11T11:11:31.462Z,82.41
2022-09-11T11:12:25.186Z,82.73
2022-09-11T11:13:24.110Z,82.90
2022-09-11T11:14:24.596Z,82.57
2022-09-11T11:15:28.167Z,82.90
2022-09-11T11:16:27.428Z,83.06
2022-09-11T11:17:30.569Z,83.06
2022-09-11T11:18:23.903Z,82.90
2022-09-11T11:19:23.967Z,83.31
2022-09-11T11:20:23.947Z,83.56
2022-09-11T11:21:23.854Z,83.81
2022-09-11T11:22:26.080Z,84.06
2022-09-11T11:23:30.688Z,84.49
2022-09-11T11:24:24.803Z,84.74
2022-09-11T11:25:25.438Z,85.17
2022-09-11T11:26:26.394Z,85.43
2022-09-11T11:27:28.265Z,86.32
2022-09-11T11:28:31.782Z,86.05
2022-09-11T11:29:26.134Z,86.58
2022-09-11T11:30:24.728Z,86.58
2022-09-11T11:31:23.755Z,86.67
2022-09-11T11:32:24.852Z,87.03
2022-09-11T11:33:24.576Z,87.40
2022-09-11T11:34:30.075Z,87.85
2022-09-11T11:35:24.203Z,87.85
2022-09-11T11:36:23.965Z,87.40
2022-09-11T11:37:23.860Z,87.67
2022-09-11T11:38:27.537Z,87.85
2022-09-11T11:39:23.563Z,88.13
2022-09-11T11:40:33.806Z,88.04
2022-09-11T11:41:24.843Z,87.76
2022-09-11T11:42:25.238Z,87.95
2022-09-11T11:43:25.086Z,88.32
2022-09-11T11:44:24.175Z,88.60
2022-09-11T11:45:29.941Z,87.76
2022-09-11T11:46:23.486Z,88.22
2022-09-11T11:47:24.399Z,88.50
2022-09-11T11:48:24.568Z,88.04
2022-09-11T11:49:23.872Z,87.95
2022-09-11T11:50:27.402Z,87.58
2022-09-11T11:51:33.503Z,87.49
2022-09-11T11:52:24.573Z,87.58
2022-09-11T11:53:23.529Z,87.76
2022-09-11T11:54:28.355Z,87.21
2022-09-11T11:55:23.911Z,87.12
2022-09-11T11:56:56.499Z,146.03
2022-09-11T11:57:55.836Z,116.56
2022-09-11T11:58:55.022Z,103.91
2022-09-11T11:59:56.452Z,98.07
2022-09-11T12:00:55.770Z,93.94
2022-09-11T12:02:01.841Z,93.23
2022-09-11T12:02:56.267Z,91.40
2022-09-11T12:03:55.208Z,90.22
2022-09-11T12:04:57.249Z,89.45
2022-09-11T12:05:54.777Z,88.79
2022-09-11T12:06:55.772Z,88.32
2022-09-11T12:08:01.869Z,87.67
2022-09-11T12:08:54.752Z,87.58
2022-09-11T12:09:58.960Z,86.94
2022-09-11T12:10:55.124Z,86.58
2022-09-11T12:11:55.799Z,85.96
2022-09-11T12:12:54.679Z,85.70
2022-09-11T12:14:01.795Z,85.09
2022-09-11T12:14:54.822Z,84.66
2022-09-11T12:15:54.865Z,84.06
2022-09-11T12:16:55.472Z,84.06
2022-09-11T12:17:54.724Z,83.81
2022-09-11T12:18:54.757Z,83.48
2022-09-11T12:20:02.140Z,83.06
2022-09-11T12:20:54.637Z,82.57
2022-09-11T12:21:54.615Z,82.25
2022-09-11T12:22:54.903Z,82.33
2022-09-11T12:23:56.550Z,82.57
2022-09-11T12:24:55.849Z,82.08
2022-09-11T12:25:57.551Z,81.61
2022-09-11T12:26:54.411Z,81.61
2022-09-11T12:27:54.713Z,81.61
2022-09-11T12:28:54.605Z,81.68
2022-09-11T12:29:55.847Z,82.00
2022-09-11T12:31:00.777Z,81.92
2022-09-11T12:31:54.368Z,82.08
2022-09-11T12:32:54.449Z,82.25
2022-09-11T12:33:54.815Z,82.41
2022-09-11T12:34:54.917Z,82.33
2022-09-11T12:36:24.622Z,139.00
2022-09-11T12:37:25.763Z,111.82
2022-09-11T12:38:25.807Z,99.46
2022-09-11T12:39:24.574Z,95.46
2022-09-11T12:40:24.748Z,91.50
2022-09-11T12:41:30.948Z,89.16
2022-09-11T12:42:25.637Z,87.67
2022-09-11T12:43:24.844Z,86.40
2022-09-11T12:44:24.937Z,85.61
2022-09-11T12:45:24.656Z,85.09
2022-09-11T12:46:24.513Z,84.66